createdAt,value
2022-11-01T00:01:31.606Z,6.93
2022-11-01T00:03:58.272Z,8.57
2022-11-01T00:06:25.174Z,6.35
2022-11-01T00:08:51.809Z,8.43
2022-11-01T00:11:19.346Z,7.28
2022-11-01T00:13:48.017Z,8.85
2022-11-01T00:16:15.922Z,8.75
2022-11-01T00:18:42.858Z,6.97
2022-11-01T00:21:10.571Z,8.27
2022-11-01T00:23:37.784Z,8.07
2022-11-01T00:26:04.677Z,9.50
2022-11-01T00:28:32.198Z,9.27
2022-11-01T00:30:59.273Z,7.65
2022-11-01T00:33:26.676Z,7.57
2022-11-01T00:35:53.338Z,7.97
2022-11-01T00:38:19.962Z,7.00
2022-11-01T00:40:47.023Z,8.43
2022-11-01T00:43:13.967Z,7.75
2022-11-01T00:45:43.736Z,7.03
2022-11-01T00:48:10.606Z,7.47
2022-11-01T00:50:37.279Z,7.78
2022-11-01T00:53:04.129Z,7.15
2022-11-01T00:55:30.688Z,8.77
2022-11-01T00:57:57.345Z,8.70
2022-11-01T01:00:24.309Z,8.27
2022-11-01T01:02:50.976Z,7.72
2022-11-01T01:05:17.869Z,8.35
2022-11-01T01:07:44.453Z,9.68
2022-11-01T01:10:11.095Z,8.57
2022-11-01T01:12:37.980Z,8.88
2022-11-01T01:15:05.419Z,8.23
2022-11-01T01:17:33.775Z,8.98
2022-11-01T01:20:00.609Z,9.02
2022-11-01T01:22:28.493Z,8.70
2022-11-01T01:24:55.098Z,9.15
2022-11-01T01:27:21.997Z,9.23
2022-11-01T01:29:48.657Z,9.25
2022-11-01T01:32:17.345Z,9.13
2022-11-01T01:34:44.124Z,10.23
2022-11-01T01:37:11.564Z,10.32
2022-11-01T01:39:38.345Z,9.77
2022-11-01T01:42:17.589Z,8.68
2022-11-01T01:44:47.436Z,8.80
2022-11-01T01:47:32.781Z,10.13
2022-11-01T01:50:11.845Z,9.93
2022-11-01T01:52:55.439Z,9.60
2022-11-01T01:55:26.994Z,9.02
2022-11-01T01:57:56.443Z,8.52
2022-11-01T02:00:23.019Z,8.73
2022-11-01T02:02:50.897Z,8.40
2022-11-01T02:05:44.107Z,8.23
2022-11-01T02:08:12.380Z,8.75
2022-11-01T02:10:40.180Z,7.30
2022-11-01T02:13:14.667Z,7.95
2022-11-01T02:16:18.952Z,8.23
2022-11-01T02:18:52.950Z,8.50
2022-11-01T02:21:35.909Z,9.02
2022-11-01T02:24:23.453Z,9.02
2022-11-01T02:27:02.292Z,7.15
2022-11-01T02:29:58.077Z,7.10
2022-11-01T02:32:43.290Z,6.43
2022-11-01T02:35:35.221Z,6.80
2022-11-01T02:38:28.211Z,7.43
2022-11-01T02:41:08.569Z,6.68
2022-11-01T02:43:46.834Z,7.47
2022-11-01T02:46:34.429Z,7.90
2022-11-01T02:49:01.790Z,6.47
2022-11-01T02:51:29.527Z,8.10
2022-11-01T02:53:56.104Z,6.75
2022-11-01T02:56:22.901Z,6.43
2022-11-01T02:58:52.600Z,6.35
2022-11-01T03:01:24.660Z,5.93
2022-11-01T03:03:53.343Z,6.70
2022-11-01T03:06:28.558Z,6.45
2022-11-01T03:09:00.021Z,6.97
2022-11-01T03:11:32.756Z,6.97
2022-11-01T03:14:18.081Z,7.38
2022-11-01T03:16:58.713Z,6.88
2022-11-01T03:19:56.521Z,6.80
2022-11-01T03:22:30.976Z,6.90
2022-11-01T03:25:34.505Z,7.18
2022-11-01T03:28:09.413Z,7.05
2022-11-01T03:30:37.241Z,7.28
2022-11-01T03:33:04.819Z,6.18
2022-11-01T03:35:36.827Z,7.63
2022-11-01T03:38:13.094Z,6.43
2022-11-01T03:40:49.269Z,7.18
2022-11-01T03:43:18.421Z,8.13
2022-11-01T03:45:46.884Z,7.00
2022-11-01T03:48:13.497Z,7.32
2022-11-01T03:50:46.363Z,8.48
2022-11-01T03:53:12.959Z,7.45
2022-11-01T03:55:39.556Z,7.28
2022-11-01T03:58:07.475Z,6.72
2022-11-01T04:00:38.317Z,7.43
2022-11-01T04:03:05.382Z,7.20
2022-11-01T04:05:33.796Z,8.18
2022-11-01T04:08:00.345Z,8.23
2022-11-01T04:10:29.028Z,7.38
2022-11-01T04:12:56.670Z,7.70
2022-11-01T04:15:43.164Z,7.97
2022-11-01T04:18:42.430Z,7.80
2022-11-01T04:21:16.945Z,8.43
2022-11-01T04:23:45.142Z,8.55
2022-11-01T04:26:16.801Z,7.50
2022-11-01T04:28:56.711Z,8.32
2022-11-01T04:31:25.864Z,8.27
2022-11-01T04:33:52.731Z,7.38
2022-11-01T04:36:19.388Z,7.82
2022-11-01T04:38:52.320Z,7.93
2022-11-01T04:41:19.846Z,8.00
2022-11-01T04:43:49.658Z,7.97
2022-11-01T04:46:16.689Z,7.90
2022-11-01T04:48:43.290Z,9.00
2022-11-01T04:51:10.278Z,8.30
2022-11-01T04:53:37.102Z,9.10
2022-11-01T04:56:05.512Z,9.07
2022-11-01T04:58:34.339Z,9.45
2022-11-01T05:01:07.716Z,10.00
2022-11-01T05:03:35.208Z,9.02
2022-11-01T05:06:01.828Z,10.65
2022-11-01T05:08:28.621Z,10.07
2022-11-01T05:10:56.118Z,10.30
2022-11-01T05:13:23.024Z,9.85
2022-11-01T05:16:06.710Z,9.88
2022-11-01T05:18:36.190Z,9.63
2022-11-01T05:21:02.805Z,9.30
2022-11-01T05:23:29.382Z,9.50
2022-11-01T05:25:57.174Z,9.40
2022-11-01T05:28:23.910Z,9.57
2022-11-01T05:30:50.503Z,9.40
2022-11-01T05:33:17.078Z,9.85
2022-11-01T05:35:43.664Z,8.90
2022-11-01T05:38:10.506Z,10.27
2022-11-01T05:40:37.105Z,9.52
2022-11-01T05:43:04.290Z,9.95
2022-11-01T05:45:31.301Z,9.52
2022-11-01T05:48:03.137Z,10.43
2022-11-01T05:50:29.928Z,9.40
2022-11-01T05:53:05.026Z,9.75
2022-11-01T05:55:31.684Z,9.13
2022-11-01T05:57:58.728Z,9.05
2022-11-01T06:00:25.305Z,8.75
2022-11-01T06:02:52.011Z,8.98
2022-11-01T06:05:18.648Z,9.40
2022-11-01T06:07:45.263Z,8.85
2022-11-01T06:10:11.808Z,8.55
2022-11-01T06:12:38.428Z,8.57
2022-11-01T06:15:05.528Z,8.85
2022-11-01T06:17:32.120Z,8.55
2022-11-01T06:19:58.756Z,9.00
2022-11-01T06:22:25.462Z,8.23
2022-11-01T06:24:52.330Z,8.18
2022-11-01T06:27:19.023Z,8.00
2022-11-01T06:29:45.631Z,8.05
2022-11-01T06:32:12.247Z,7.43
2022-11-01T06:34:42.318Z,8.77
2022-11-01T06:37:11.498Z,8.23
2022-11-01T06:39:38.234Z,7.03
2022-11-01T06:42:05.087Z,6.88
2022-11-01T06:44:31.927Z,7.72
2022-11-01T06:46:58.534Z,7.13
2022-11-01T06:49:25.325Z,8.25
2022-11-01T06:51:51.958Z,6.93
2022-11-01T06:54:18.740Z,6.97
2022-11-01T06:56:47.834Z,6.25
2022-11-01T06:59:16.448Z,6.65
2022-11-01T07:01:43.997Z,6.57
2022-11-01T07:06:38.556Z,6.53
2022-11-01T07:09:05.638Z,6.35
2022-11-01T07:11:33.383Z,7.95
2022-11-01T07:14:00.049Z,6.78
2022-11-01T07:16:27.040Z,6.85
2022-11-01T07:18:53.756Z,7.18
2022-11-01T07:21:20.686Z,7.38
2022-11-01T07:23:49.936Z,7.50
2022-11-01T07:26:16.930Z,8.30
2022-11-01T07:28:43.549Z,7.72
2022-11-01T07:31:10.122Z,7.15
2022-11-01T07:33:36.767Z,7.47
2022-11-01T07:36:04.518Z,6.85
2022-11-01T07:38:31.496Z,8.23
2022-11-01T07:40:58.335Z,8.73
2022-11-01T07:43:24.947Z,6.55
2022-11-01T07:45:51.734Z,7.57
2022-11-01T07:48:19.170Z,7.95
2022-11-01T07:50:46.343Z,8.10
2022-11-01T07:53:19.293Z,7.72
2022-11-01T07:55:46.424Z,7.80
2022-11-01T07:58:14.545Z,7.75
2022-11-01T08:00:42.297Z,8.73
2022-11-01T08:03:14.574Z,7.20
2022-11-01T08:08:09.086Z,8.25
2022-11-01T08:10:36.820Z,7.45
2022-11-01T08:13:07.406Z,8.07
2022-11-01T08:15:34.354Z,7.75
2022-11-01T08:18:01.787Z,7.13
2022-11-01T08:20:28.735Z,6.93
2022-11-01T08:22:55.735Z,7.35
2022-11-01T08:25:22.581Z,5.97
2022-11-01T08:27:49.516Z,6.30
2022-11-01T08:30:17.695Z,7.15
2022-11-01T08:32:45.149Z,6.97
2022-11-01T08:35:12.472Z,6.90
2022-11-01T08:37:50.858Z,6.88
2022-11-01T08:40:18.271Z,6.53
2022-11-01T08:42:45.333Z,6.45
2022-11-01T08:45:12.298Z,5.72
2022-11-01T08:47:39.991Z,5.47
2022-11-01T08:50:11.333Z,5.82
2022-11-01T08:52:38.424Z,6.18
2022-11-01T08:55:05.920Z,5.90
2022-11-01T08:57:32.664Z,5.65
2022-11-01T08:59:59.457Z,6.55
2022-11-01T09:02:26.482Z,5.68
2022-11-01T09:04:53.241Z,5.43
2022-11-01T09:07:20.790Z,5.22
2022-11-01T09:09:47.400Z,5.10
2022-11-01T09:12:14.885Z,4.88
2022-11-01T09:14:41.816Z,4.45
2022-11-01T09:17:08.778Z,4.45
2022-11-01T09:19:35.499Z,4.60
2022-11-01T09:22:02.128Z,4.50
2022-11-01T09:24:28.748Z,3.67
2022-11-01T09:26:55.302Z,3.20
2022-11-01T09:29:21.992Z,3.40
2022-11-01T09:31:53.148Z,3.88
2022-11-01T09:34:21.048Z,3.22
2022-11-01T09:36:48.824Z,2.92
2022-11-01T09:39:17.703Z,3.28
2022-11-01T09:41:48.945Z,2.50
2022-11-01T09:44:25.387Z,2.97
2022-11-01T09:46:59.678Z,3.00
2022-11-01T09:49:33.786Z,2.33
2022-11-01T09:52:00.850Z,2.88
2022-11-01T09:54:28.365Z,2.97
2022-11-01T09:57:06.930Z,2.88
2022-11-01T09:59:51.084Z,2.63
2022-11-01T10:02:30.462Z,2.50
2022-11-01T10:05:34.492Z,3.58
2022-11-01T10:08:37.154Z,2.88
2022-11-01T10:11:25.705Z,2.28
2022-11-01T10:14:18.888Z,2.78
2022-11-01T10:17:04.611Z,2.30
2022-11-01T10:19:35.273Z,2.33
2022-11-01T10:22:12.480Z,2.53
2022-11-01T10:24:41.501Z,1.95
2022-11-01T10:27:22.044Z,2.03
2022-11-01T10:30:15.529Z,1.90
2022-11-01T10:32:47.089Z,1.60
2022-11-01T10:35:19.130Z,1.80
2022-11-01T10:40:41.334Z,1.52
2022-11-01T10:43:15.200Z,1.60
2022-11-01T10:45:47.555Z,2.00
2022-11-01T10:48:33.488Z,1.50
2022-11-01T10:51:03.695Z,1.67
2022-11-01T10:53:35.517Z,1.63
2022-11-01T10:56:08.907Z,2.50
2022-11-01T10:58:42.535Z,1.70
2022-11-01T11:01:15.805Z,1.40
2022-11-01T11:03:45.302Z,1.52
2022-11-01T11:06:13.950Z,1.40
2022-11-01T11:08:44.592Z,1.70
2022-11-01T11:11:15.347Z,1.35
2022-11-01T11:13:52.768Z,1.40
2022-11-01T11:16:37.766Z,1.42
2022-11-01T11:19:33.248Z,1.33
2022-11-01T11:22:01.208Z,1.25
2022-11-01T11:24:43.482Z,1.45
2022-11-01T11:27:23.738Z,1.60
2022-11-01T11:29:54.289Z,1.27
2022-11-01T11:32:24.156Z,1.45
2022-11-01T11:35:03.934Z,1.63
2022-11-01T11:37:34.149Z,1.20
2022-11-01T11:40:06.895Z,1.30
2022-11-01T11:42:33.490Z,1.40
2022-11-01T11:45:17.869Z,1.10
2022-11-01T11:47:46.821Z,1.10
2022-11-01T11:50:19.564Z,1.15
2022-11-01T11:53:00.875Z,1.33
2022-11-01T11:55:45.065Z,0.93
2022-11-01T11:58:40.904Z,1.10
2022-11-01T12:01:15.752Z,1.00
2022-11-01T12:03:48.266Z,1.00
2022-11-01T12:06:23.501Z,1.10
2022-11-01T12:08:53.308Z,1.10
2022-11-01T12:11:21.644Z,1.13
2022-11-01T12:14:02.993Z,1.10
2022-11-01T12:16:38.980Z,0.80
2022-11-01T12:19:06.312Z,0.80
2022-11-01T12:21:40.117Z,0.82
2022-11-01T12:24:23.295Z,0.90
2022-11-01T12:26:53.473Z,1.13
2022-11-01T12:29:35.922Z,1.27
2022-11-01T12:32:16.687Z,1.00
2022-11-01T12:34:46.871Z,0.80
2022-11-01T12:37:23.163Z,0.80
2022-11-01T12:40:16.388Z,0.82
2022-11-01T12:43:01.088Z,0.90
2022-11-01T12:48:07.673Z,0.80
2022-11-01T12:51:00.127Z,0.90
2022-11-01T12:53:33.703Z,0.70
2022-11-01T12:56:00.348Z,0.90
2022-11-01T12:58:30.845Z,0.68
2022-11-01T13:01:15.338Z,0.70
2022-11-01T13:04:05.752Z,0.60
2022-11-01T13:06:47.120Z,1.48
2022-11-01T13:09:45.445Z,0.70
2022-11-01T13:12:32.273Z,1.10
2022-11-01T13:15:28.244Z,1.00
2022-11-01T13:18:12.156Z,0.70
2022-11-01T13:20:53.625Z,1.70
2022-11-01T13:23:20.264Z,0.90
2022-11-01T13:26:07.473Z,0.90
2022-11-01T13:28:43.434Z,0.50
2022-11-01T13:31:19.649Z,0.70
2022-11-01T13:34:12.610Z,0.73
2022-11-01T13:36:45.165Z,0.70
2022-11-01T13:39:33.182Z,0.50
2022-11-01T13:42:07.426Z,0.80
2022-11-01T13:44:40.469Z,0.75
2022-11-01T13:47:14.770Z,0.80
2022-11-01T13:49:54.242Z,0.90
2022-11-01T13:52:29.035Z,0.70
2022-11-01T13:57:46.502Z,0.50
2022-11-01T14:00:34.984Z,0.85
2022-11-01T14:03:21.150Z,0.80
2022-11-01T14:06:07.703Z,0.82
2022-11-01T14:08:42.288Z,0.80
2022-11-01T14:11:14.175Z,0.70
2022-11-01T14:13:46.952Z,0.77
2022-11-01T14:16:16.694Z,0.50
2022-11-01T14:19:02.787Z,0.65
2022-11-01T14:21:44.537Z,0.75
2022-11-01T14:24:23.474Z,0.60
2022-11-01T14:27:00.618Z,0.75
2022-11-01T14:29:28.032Z,0.70
2022-11-01T14:31:55.767Z,0.63
2022-11-01T14:34:35.618Z,1.00
2022-11-01T14:37:15.335Z,0.60
2022-11-01T14:39:58.222Z,1.10
2022-11-01T14:42:35.132Z,1.00
2022-11-01T14:45:32.529Z,1.17
2022-11-01T14:48:17.237Z,0.65
2022-11-01T14:53:31.541Z,0.80
2022-11-01T14:56:07.015Z,0.65
2022-11-01T14:58:33.678Z,0.75
2022-11-01T15:01:06.502Z,0.95
2022-11-01T15:03:33.330Z,1.23
2022-11-01T15:06:00.032Z,0.80
2022-11-01T15:08:37.849Z,0.80
2022-11-01T15:11:05.317Z,0.90
2022-11-01T15:13:36.711Z,1.15
2022-11-01T15:16:12.376Z,1.20
2022-11-01T15:18:51.789Z,1.00
2022-11-01T15:21:24.369Z,1.20
2022-11-01T15:23:55.709Z,0.70
2022-11-01T15:26:26.491Z,0.68
2022-11-01T15:28:59.223Z,0.60
2022-11-01T15:31:26.224Z,0.57
2022-11-01T15:34:05.669Z,0.80
2022-11-01T15:36:38.198Z,0.63
2022-11-01T15:39:26.163Z,0.70
2022-11-01T15:41:56.811Z,0.80
2022-11-01T15:44:28.664Z,0.50
2022-11-01T15:47:01.065Z,0.70
2022-11-01T15:49:49.314Z,0.60
2022-11-01T15:52:20.896Z,0.93
2022-11-01T15:54:53.427Z,1.20
2022-11-01T15:57:33.862Z,0.95
2022-11-01T16:00:22.305Z,0.70
2022-11-01T16:02:52.232Z,0.52
2022-11-01T16:05:23.230Z,0.77
2022-11-01T16:07:50.057Z,0.73
2022-11-01T16:10:26.348Z,0.65
2022-11-01T16:12:54.437Z,0.85
2022-11-01T16:15:26.073Z,0.70
2022-11-01T16:17:55.814Z,0.88
2022-11-01T16:20:37.882Z,0.80
2022-11-01T16:23:10.381Z,0.60
2022-11-01T16:25:38.454Z,0.88
2022-11-01T16:28:11.230Z,0.80
2022-11-01T16:30:46.199Z,0.80
2022-11-01T16:33:22.132Z,1.20
2022-11-01T16:35:51.604Z,0.82
2022-11-01T16:38:35.806Z,0.63
2022-11-01T16:41:04.465Z,0.75
2022-11-01T16:43:32.611Z,0.57
2022-11-01T16:46:00.426Z,1.02
2022-11-01T16:48:30.310Z,0.80
2022-11-01T16:50:58.538Z,0.98
2022-11-01T16:53:27.369Z,0.77
2022-11-01T16:56:16.625Z,0.70
2022-11-01T16:58:48.473Z,1.05
2022-11-01T17:01:20.718Z,0.65
2022-11-01T17:03:48.429Z,0.98
2022-11-01T17:06:15.865Z,0.73
2022-11-01T17:08:42.593Z,1.75
2022-11-01T17:11:09.241Z,0.88
2022-11-01T17:13:36.855Z,0.85
2022-11-01T17:16:05.160Z,1.02
2022-11-01T17:18:41.122Z,1.10
2022-11-01T17:21:11.127Z,1.27
2022-11-01T17:23:37.952Z,0.88
2022-11-01T17:26:08.021Z,0.88
2022-11-01T17:28:34.796Z,0.90
2022-11-01T17:31:01.774Z,0.80
2022-11-01T17:33:28.356Z,0.80
2022-11-01T17:35:54.984Z,0.82
2022-11-01T17:38:32.101Z,0.60
2022-11-01T17:40:59.697Z,1.17
2022-11-01T17:43:26.422Z,0.90
2022-11-01T17:45:53.065Z,1.35
2022-11-01T17:48:20.673Z,1.08
2022-11-01T17:50:48.030Z,0.90
2022-11-01T17:53:17.265Z,1.05
2022-11-01T17:55:44.777Z,1.00
2022-11-01T17:58:12.231Z,0.88
2022-11-01T18:00:42.633Z,0.60
2022-11-01T18:03:10.487Z,1.20
2022-11-01T18:05:38.909Z,1.08
2022-11-01T18:08:19.296Z,1.20
2022-11-01T18:11:09.182Z,1.02
2022-11-01T18:13:41.258Z,1.70
2022-11-01T18:16:08.145Z,1.17
2022-11-01T18:18:53.741Z,1.17
2022-11-01T18:21:26.535Z,1.05
2022-11-01T18:23:55.718Z,1.80
2022-11-01T18:26:24.500Z,1.00
2022-11-01T18:28:55.089Z,1.00
2022-11-01T18:31:28.878Z,1.10
2022-11-01T18:33:58.513Z,1.38
2022-11-01T18:36:28.585Z,1.00
2022-11-01T18:39:12.427Z,1.40
2022-11-01T18:41:39.647Z,1.52
2022-11-01T18:44:11.316Z,1.42
2022-11-01T18:47:03.453Z,0.90
2022-11-01T18:49:30.841Z,1.17
2022-11-01T18:51:58.177Z,1.60
2022-11-01T18:54:29.435Z,0.98
2022-11-01T18:57:12.276Z,1.00
2022-11-01T18:59:40.246Z,0.93
2022-11-01T19:02:28.491Z,1.17
2022-11-01T19:05:17.086Z,1.15
2022-11-01T19:08:20.572Z,0.88
2022-11-01T19:10:32.875Z,1.00
2022-11-01T19:12:59.480Z,1.00
2022-11-01T19:15:28.762Z,0.85
2022-11-01T19:18:00.228Z,0.95
2022-11-01T19:20:30.175Z,1.23
2022-11-01T19:23:09.041Z,1.55
2022-11-01T19:25:36.935Z,1.23
2022-11-01T19:28:25.518Z,0.82
2022-11-01T19:30:52.797Z,1.13
2022-11-01T19:33:39.085Z,1.17
2022-11-01T19:36:14.578Z,1.05
2022-11-01T19:38:44.859Z,1.05
2022-11-01T19:41:15.634Z,1.00
2022-11-01T19:43:42.401Z,0.93
2022-11-01T19:46:14.981Z,1.10
2022-11-01T19:48:41.585Z,0.90
2022-11-01T19:51:26.608Z,1.20
2022-11-01T19:53:54.081Z,0.95
2022-11-01T19:56:26.155Z,1.50
2022-11-01T19:59:00.528Z,1.10
2022-11-01T20:01:33.514Z,1.10
2022-11-01T20:04:10.499Z,1.33
2022-11-01T20:06:48.471Z,1.27
2022-11-01T20:09:21.119Z,1.20
2022-11-01T20:11:47.886Z,2.08
2022-11-01T20:14:14.909Z,1.25
2022-11-01T20:16:42.037Z,1.95
2022-11-01T20:19:10.857Z,1.40
2022-11-01T20:21:39.916Z,1.20
2022-11-01T20:24:06.965Z,1.38
2022-11-01T20:26:33.761Z,1.40
2022-11-01T20:29:00.330Z,1.23
2022-11-01T20:31:27.215Z,1.20
2022-11-01T20:33:54.594Z,1.33
2022-11-01T20:36:22.191Z,1.10
2022-11-01T20:38:49.396Z,1.55
2022-11-01T20:41:16.305Z,1.40
2022-11-01T20:43:43.253Z,1.42
2022-11-01T20:46:10.026Z,1.30
2022-11-01T20:48:36.660Z,1.42
2022-11-01T20:51:03.601Z,1.20
2022-11-01T20:53:30.341Z,1.65
2022-11-01T20:55:56.938Z,1.35
2022-11-01T20:58:23.661Z,1.50
2022-11-01T21:00:51.505Z,1.80
2022-11-01T21:03:20.603Z,1.40
2022-11-01T21:05:49.015Z,1.30
2022-11-01T21:08:24.189Z,1.10
2022-11-01T21:11:00.832Z,1.33
2022-11-01T21:13:35.033Z,0.95
2022-11-01T21:16:03.685Z,1.10
2022-11-01T21:18:30.219Z,1.33
2022-11-01T21:20:59.054Z,0.80
2022-11-01T21:23:37.627Z,1.23
2022-11-01T21:26:18.890Z,1.13
2022-11-01T21:29:06.858Z,1.05
2022-11-01T21:31:34.635Z,1.05
2022-11-01T21:34:10.496Z,0.90
2022-11-01T21:36:41.833Z,1.23
2022-11-01T21:39:18.202Z,0.93
2022-11-01T21:41:46.304Z,1.48
2022-11-01T21:44:18.831Z,1.23
2022-11-01T21:46:48.499Z,1.38
2022-11-01T21:49:36.485Z,1.15
2022-11-01T21:52:06.283Z,1.67
2022-11-01T21:54:34.456Z,1.38
2022-11-01T21:57:02.249Z,1.25
2022-11-01T21:59:29.127Z,1.00
2022-11-01T22:01:57.047Z,1.33
2022-11-01T22:04:27.778Z,0.80
2022-11-01T22:06:56.290Z,1.23
2022-11-01T22:09:23.084Z,1.00
2022-11-01T22:11:49.713Z,1.67
2022-11-01T22:14:16.323Z,1.13
2022-11-01T22:16:42.922Z,1.30
2022-11-01T22:19:09.806Z,1.40
2022-11-01T22:21:36.612Z,1.73
2022-11-01T22:24:04.097Z,1.50
2022-11-01T22:26:30.794Z,1.20
2022-11-01T22:28:57.492Z,1.27
2022-11-01T22:31:24.232Z,1.58
2022-11-01T22:33:55.718Z,1.27
2022-11-01T22:36:30.757Z,1.35
2022-11-01T22:39:06.527Z,1.10
2022-11-01T22:41:36.197Z,1.58
2022-11-01T22:44:05.419Z,1.17
2022-11-01T22:46:46.611Z,1.58
2022-11-01T22:49:20.334Z,1.02
2022-11-01T22:51:51.313Z,1.15
2022-11-01T22:54:34.068Z,1.30
2022-11-01T22:57:09.635Z,1.80
2022-11-01T22:59:52.748Z,2.33
2022-11-01T23:02:36.517Z,1.67
2022-11-01T23:05:22.050Z,1.23
2022-11-01T23:07:51.208Z,1.20
2022-11-01T23:10:30.655Z,1.10
2022-11-01T23:13:47.261Z,1.15
2022-11-01T23:18:42.944Z,1.42
2022-11-01T23:21:10.077Z,1.90
2022-11-01T23:23:40.577Z,1.20
2022-11-01T23:26:07.405Z,1.17
2022-11-01T23:28:35.348Z,0.98
2022-11-01T23:31:04.797Z,1.23
2022-11-01T23:33:50.512Z,1.65
2022-11-01T23:36:36.196Z,1.40
2022-11-01T23:39:13.561Z,1.15
2022-11-01T23:41:44.164Z,1.30
2022-11-01T23:44:37.114Z,1.10
2022-11-01T23:47:09.549Z,1.50
2022-11-01T23:52:11.310Z,1.10
2022-11-01T23:54:42.140Z,1.55
2022-11-01T23:57:17.648Z,1.20
2022-11-01T23:59:44.276Z,1.20
